Time;durP1;ratioP1;P1;durP2;ratioP2;P2;SDS_P1;SDS_P2;PMS_P1;PMS_P2;Temp;Humidity;BMP_temperature;BMP_pressure;BME280_temperature;BME280_humidity;BME280_pressure;Samples;Min_cycle;Max_cycle;Signal;HPM_P1;HPM_P2
2021/11/11 00:00:46;;;;;;;18.40;9.77;;;4.40;81.70;;;;;;5116826;28;20059;-77
2021/11/11 00:03:12;;;;;;;21.40;9.48;;;4.40;81.40;;;;;;5116758;28;20114;-77
2021/11/11 00:05:38;;;;;;;20.77;10.27;;;4.40;80.70;;;;;;5118450;28;20070;-78
2021/11/11 00:08:04;;;;;;;19.50;10.07;;;4.40;80.30;;;;;;5127459;28;20040;-78
2021/11/11 00:10:30;;;;;;;18.88;9.35;;;4.30;80.20;;;;;;5119655;28;20024;-78
2021/11/11 00:12:57;;;;;;;17.55;9.27;;;4.30;80.20;;;;;;5115399;28;20383;-77
2021/11/11 00:15:23;;;;;;;21.98;9.60;;;4.30;80.20;;;;;;5116540;28;20100;-77
2021/11/11 00:17:50;;;;;;;15.63;8.82;;;4.30;80.00;;;;;;5117312;28;20024;-77
2021/11/11 00:20:18;;;;;;;22.05;9.25;;;4.20;79.60;;;;;;5129911;28;20087;-74
2021/11/11 00:22:45;;;;;;;14.63;8.40;;;4.20;79.30;;;;;;5129993;28;20068;-76
2021/11/11 00:25:13;;;;;;;17.45;8.50;;;4.20;79.20;;;;;;5119000;28;20499;-78
2021/11/11 00:27:39;;;;;;;17.88;8.68;;;4.20;79.10;;;;;;5116456;28;20027;-79
2021/11/11 00:30:07;;;;;;;20.75;8.93;;;4.10;79.00;;;;;;5116807;28;20030;-78
2021/11/11 00:32:32;;;;;;;19.17;10.10;;;4.10;79.00;;;;;;5115702;28;20051;-79
2021/11/11 00:34:58;;;;;;;18.08;9.82;;;4.00;78.90;;;;;;5116718;28;20103;-74
2021/11/11 00:37:23;;;;;;;15.50;8.48;;;4.00;79.00;;;;;;5116259;28;20023;-73
2021/11/11 00:39:51;;;;;;;15.63;9.90;;;4.00;79.10;;;;;;5115737;28;20024;-73
2021/11/11 00:42:18;;;;;;;14.88;8.90;;;3.90;79.10;;;;;;5115790;28;20020;-74
2021/11/11 00:44:45;;;;;;;14.77;8.80;;;3.90;79.30;;;;;;5115716;28;20489;-74
2021/11/11 00:47:12;;;;;;;15.02;8.18;;;3.90;79.40;;;;;;5115630;28;20468;-73
2021/11/11 00:49:38;;;;;;;13.90;8.18;;;3.90;79.50;;;;;;5115646;28;20027;-73
2021/11/11 00:52:04;;;;;;;14.18;8.40;;;3.90;79.50;;;;;;5115534;28;20031;-73
2021/11/11 00:54:31;;;;;;;16.60;7.75;;;4.00;79.30;;;;;;5115692;28;20087;-74
2021/11/11 00:56:56;;;;;;;18.30;8.40;;;4.00;79.10;;;;;;5115498;28;20035;-73
2021/11/11 00:59:22;;;;;;;12.73;7.45;;;4.00;78.90;;;;;;5115497;28;20020;-74
2021/11/11 01:01:48;;;;;;;13.32;7.45;;;4.00;78.50;;;;;;5115430;28;20028;-75
2021/11/11 01:04:13;;;;;;;13.10;7.22;;;4.00;79.40;;;;;;5115511;28;20031;-75
2021/11/11 01:06:39;;;;;;;15.27;7.15;;;3.90;78.60;;;;;;5115433;28;20027;-75
2021/11/11 01:09:05;;;;;;;16.80;7.97;;;3.90;78.50;;;;;;5115325;28;20024;-76
2021/11/11 01:11:30;;;;;;;16.50;8.25;;;3.90;78.50;;;;;;5128079;28;20384;-75
2021/11/11 01:13:56;;;;;;;15.15;7.85;;;3.90;78.40;;;;;;5138445;28;20032;-76
2021/11/11 01:16:21;;;;;;;15.77;7.65;;;3.80;78.30;;;;;;5120004;28;20020;-74
2021/11/11 01:18:47;;;;;;;15.15;8.15;;;3.80;78.30;;;;;;5115100;28;20476;-75
2021/11/11 01:21:13;;;;;;;14.40;7.53;;;3.80;78.60;;;;;;5115127;28;20087;-75
2021/11/11 01:23:39;;;;;;;16.90;8.45;;;3.70;79.00;;;;;;5114769;28;20084;-75
2021/11/11 01:26:05;;;;;;;14.35;7.68;;;3.70;79.20;;;;;;5096681;28;20514;-74
2021/11/11 01:28:31;;;;;;;14.10;7.28;;;3.80;79.30;;;;;;5114946;28;20051;-74
2021/11/11 01:30:57;;;;;;;11.73;7.28;;;3.80;79.20;;;;;;5114845;28;20043;-75
2021/11/11 01:33:23;;;;;;;12.55;6.13;;;3.80;78.90;;;;;;5114506;28;20555;-75
2021/11/11 01:35:50;;;;;;;11.13;7.13;;;3.80;78.70;;;;;;5114589;28;20062;-75
2021/11/11 01:38:16;;;;;;;11.20;6.70;;;3.70;78.50;;;;;;5114702;28;20016;-75
2021/11/11 01:40:42;;;;;;;10.68;6.35;;;3.60;78.50;;;;;;5114664;28;20027;-75
2021/11/11 01:43:09;;;;;;;10.25;5.82;;;3.70;78.90;;;;;;5114480;28;20036;-75
2021/11/11 01:45:38;;;;;;;11.07;6.32;;;3.60;78.70;;;;;;5114543;28;20020;-75
2021/11/11 01:48:06;;;;;;;10.90;6.25;;;3.50;78.70;;;;;;5096565;28;20032;-75
2021/11/11 01:50:32;;;;;;;12.88;7.00;;;3.50;78.90;;;;;;5114582;28;20028;-76
2021/11/11 01:53:00;;;;;;;15.55;7.72;;;3.50;79.00;;;;;;5114493;28;20110;-76
2021/11/11 01:55:26;;;;;;;11.75;6.30;;;3.40;79.00;;;;;;5114420;28;20051;-75
2021/11/11 01:57:52;;;;;;;11.88;6.90;;;3.40;79.10;;;;;;5114303;28;20023;-75
2021/11/11 02:00:28;;;;;;;10.75;6.25;;;3.40;79.30;;;;;;5114399;28;20384;-75
2021/11/11 02:02:57;;;;;;;10.48;5.95;;;3.40;79.40;;;;;;5114173;28;20024;-75
2021/11/11 02:05:23;;;;;;;12.73;6.85;;;3.40;79.20;;;;;;5114177;28;20030;-74
2021/11/11 02:07:53;;;;;;;10.80;5.72;;;3.40;79.10;;;;;;5114089;28;20023;-75
2021/11/11 02:10:20;;;;;;;12.45;6.13;;;3.30;79.10;;;;;;5114154;28;20038;-74
2021/11/11 02:12:46;;;;;;;7.45;5.15;;;3.30;79.20;;;;;;5114083;28;20091;-74
2021/11/11 02:15:13;;;;;;;7.88;5.03;;;3.30;79.20;;;;;;5095854;28;20088;-74
2021/11/11 02:17:40;;;;;;;11.82;5.22;;;3.30;79.20;;;;;;5114090;28;20384;-74
2021/11/11 02:20:09;;;;;;;8.48;5.20;;;3.30;79.10;;;;;;5113964;28;20024;-74
2021/11/11 02:22:34;;;;;;;9.98;5.93;;;3.30;79.00;;;;;;5113615;28;20032;-74
2021/11/11 02:25:01;;;;;;;9.15;5.32;;;3.30;79.10;;;;;;5113522;28;20032;-74
2021/11/11 02:27:26;;;;;;;8.95;4.93;;;3.30;79.20;;;;;;5095520;28;20380;-74
2021/11/11 02:29:52;;;;;;;8.05;5.10;;;3.20;79.20;;;;;;5113758;28;20024;-74
2021/11/11 02:32:18;;;;;;;7.57;4.60;;;3.20;79.60;;;;;;5113747;28;20047;-74
2021/11/11 02:34:44;;;;;;;10.43;5.20;;;3.30;80.00;;;;;;5113385;28;20026;-74
2021/11/11 02:37:09;;;;;;;10.50;5.53;;;3.30;80.10;;;;;;5113584;28;20062;-74
2021/11/11 02:39:37;;;;;;;9.30;5.35;;;3.30;80.40;;;;;;5095462;28;20023;-74
2021/11/11 02:42:04;;;;;;;10.35;4.95;;;3.30;80.40;;;;;;5113872;28;20024;-74
2021/11/11 02:44:32;;;;;;;11.77;4.78;;;3.30;80.50;;;;;;5113472;28;20040;-74
2021/11/11 02:46:58;;;;;;;9.18;5.15;;;3.40;80.50;;;;;;5113548;28;20030;-74
2021/11/11 02:49:33;;;;;;;9.38;5.00;;;3.30;80.30;;;;;;5113459;28;20028;-74
2021/11/11 02:51:59;;;;;;;;;;;3.30;79.60;;;;;;5114075;28;20076;-74
2021/11/11 02:54:25;;;;;;;10.10;4.47;;;3.20;80.30;;;;;;5114844;28;19910;-75
2021/11/11 02:56:51;;;;;;;9.98;4.80;;;3.10;80.90;;;;;;5115003;28;20059;-75
2021/11/11 02:59:17;;;;;;;7.13;4.65;;;3.20;81.10;;;;;;5113403;28;20077;-74
2021/11/11 03:01:42;;;;;;;8.82;4.55;;;3.20;82.00;;;;;;5113563;28;20031;-74
2021/11/11 03:04:08;;;;;;;8.73;4.78;;;3.20;81.00;;;;;;5113556;28;20036;-74
2021/11/11 03:06:37;;;;;;;9.27;5.00;;;3.30;80.70;;;;;;5113542;28;20106;-74
2021/11/11 03:09:02;;;;;;;10.00;5.15;;;3.20;79.50;;;;;;5095019;28;20376;-74
2021/11/11 03:11:30;;;;;;;10.10;5.40;;;3.20;79.40;;;;;;5113354;28;20012;-75
2021/11/11 03:13:55;;;;;;;7.75;4.68;;;3.20;79.40;;;;;;5113203;28;20027;-74
2021/11/11 03:16:21;;;;;;;11.23;4.95;;;3.10;79.40;;;;;;5113213;28;20394;-74
2021/11/11 03:18:47;;;;;;;9.30;5.45;;;3.10;79.20;;;;;;5113262;28;20015;-74
2021/11/11 03:21:13;;;;;;;11.35;5.65;;;3.10;79.90;;;;;;5113202;28;20019;-74
2021/11/11 03:23:39;;;;;;;10.52;5.68;;;3.10;79.00;;;;;;5113392;28;20036;-74
2021/11/11 03:26:04;;;;;;;11.18;5.95;;;3.10;79.00;;;;;;5114386;28;20103;-75
2021/11/11 03:28:30;;;;;;;9.60;6.07;;;3.10;78.80;;;;;;5114718;28;20483;-75
2021/11/11 03:30:56;;;;;;;11.15;6.18;;;3.00;78.90;;;;;;5118135;28;20046;-74
2021/11/11 03:33:21;;;;;;;10.85;6.30;;;3.00;79.90;;;;;;5113381;28;20429;-74
2021/11/11 03:35:47;;;;;;;11.95;6.05;;;3.00;79.20;;;;;;5116734;28;20015;-74
2021/11/11 03:38:13;;;;;;;12.27;7.00;;;3.00;79.20;;;;;;5120055;28;20484;-74
2021/11/11 03:40:42;;;;;;;15.02;8.85;;;3.00;78.90;;;;;;5114387;28;20062;-75
2021/11/11 03:43:08;;;;;;;15.55;8.77;;;2.90;78.50;;;;;;5116659;28;20099;-75
2021/11/11 03:45:33;;;;;;;15.75;8.65;;;2.80;78.80;;;;;;5113621;28;20443;-75
2021/11/11 03:47:59;;;;;;;14.43;8.55;;;2.70;79.40;;;;;;5116671;28;20032;-75
2021/11/11 03:50:25;;;;;;;18.30;8.57;;;2.70;80.40;;;;;;5116938;28;20122;-79
2021/11/11 03:52:51;;;;;;;16.80;8.38;;;2.80;80.90;;;;;;5116667;28;20024;-79
2021/11/11 03:55:21;;;;;;;17.55;8.55;;;2.80;81.00;;;;;;5116746;28;20023;-75
2021/11/11 03:57:47;;;;;;;11.90;6.45;;;2.90;80.80;;;;;;5116596;28;20012;-74
2021/11/11 04:00:16;;;;;;;12.63;6.63;;;2.90;80.30;;;;;;5116744;28;20046;-75
2021/11/11 04:02:42;;;;;;;11.88;6.80;;;2.90;80.00;;;;;;5116396;28;20062;-75
2021/11/11 04:05:08;;;;;;;9.35;5.72;;;2.90;79.80;;;;;;5116414;28;20027;-74
2021/11/11 04:07:34;;;;;;;11.05;5.60;;;2.80;79.30;;;;;;5116541;28;20024;-73
2021/11/11 04:09:59;;;;;;;10.65;5.93;;;2.70;79.30;;;;;;5116612;28;20028;-74
2021/11/11 04:12:25;;;;;;;10.52;5.60;;;2.70;79.40;;;;;;5116307;28;20015;-73
2021/11/11 04:14:51;;;;;;;10.05;6.03;;;2.70;79.50;;;;;;5116402;28;20537;-74
2021/11/11 04:17:17;;;;;;;10.25;6.10;;;2.60;79.80;;;;;;5116313;28;20023;-74
2021/11/11 04:19:42;;;;;;;9.32;5.93;;;2.60;80.00;;;;;;5116320;28;20023;-74
2021/11/11 04:22:08;;;;;;;11.93;6.50;;;2.60;80.10;;;;;;5116311;28;20376;-74
2021/11/11 04:24:34;;;;;;;11.43;6.03;;;2.60;80.20;;;;;;5116119;28;20032;-74
2021/11/11 04:27:16;;;;;;;11.30;6.03;;;2.50;80.20;;;;;;5097758;28;20024;-74
2021/11/11 04:29:51;;;;;;;14.10;7.18;;;2.50;80.50;;;;;;5116040;28;20024;-74
2021/11/11 04:32:18;;;;;;;15.23;7.60;;;2.60;80.70;;;;;;5115823;28;20051;-74
2021/11/11 04:34:45;;;;;;;13.63;7.18;;;2.60;80.70;;;;;;5115766;28;20020;-73
2021/11/11 04:45:07;;;;;;;15.98;8.25;;;2.70;81.10;;;;;;5115693;28;20039;-74
2021/11/11 05:01:25;;;;;;;17.10;8.30;;;2.80;81.90;;;;;;5115370;28;20057;-73
2021/11/11 05:03:50;;;;;;;13.85;7.60;;;2.80;82.20;;;;;;5115158;28;20032;-73
2021/11/11 05:06:17;;;;;;;10.05;6.30;;;2.70;82.30;;;;;;5115308;28;20103;-73
2021/11/11 05:08:43;;;;;;;11.00;6.07;;;2.80;82.30;;;;;;5115332;28;20016;-73
2021/11/11 05:11:09;;;;;;;9.45;5.60;;;2.70;82.50;;;;;;5115187;28;20023;-73
2021/11/11 05:13:35;;;;;;;9.02;4.90;;;2.70;82.50;;;;;;5115184;28;20023;-73
2021/11/11 05:16:01;;;;;;;10.60;5.45;;;2.70;82.60;;;;;;5115020;28;20380;-73
2021/11/11 05:18:27;;;;;;;9.50;4.65;;;2.70;82.60;;;;;;5115088;28;20028;-73
2021/11/11 05:20:52;;;;;;;10.98;5.85;;;2.80;82.70;;;;;;5115019;28;20094;-74
2021/11/11 05:23:18;;;;;;;10.10;5.07;;;2.70;82.70;;;;;;5114829;28;20069;-73
2021/11/11 05:25:44;;;;;;;13.40;6.25;;;2.70;82.80;;;;;;5115067;28;20029;-73
2021/11/11 05:28:10;;;;;;;12.18;5.88;;;2.70;82.90;;;;;;5122025;28;20047;-74
2021/11/11 05:30:36;;;;;;;8.50;4.72;;;2.70;83.10;;;;;;5116275;28;20023;-74
2021/11/11 05:33:02;;;;;;;8.38;4.88;;;2.60;83.10;;;;;;5114720;28;20047;-73
2021/11/11 05:35:27;;;;;;;9.23;4.82;;;2.70;83.50;;;;;;5096450;28;20020;-74
2021/11/11 05:37:54;;;;;;;9.82;4.80;;;2.70;83.60;;;;;;5114587;28;20023;-73
2021/11/11 05:40:21;;;;;;;8.98;5.53;;;2.80;83.40;;;;;;5114660;28;20031;-73
2021/11/11 05:42:47;;;;;;;8.75;5.30;;;2.80;83.10;;;;;;5114324;28;20046;-75
2021/11/11 05:45:15;;;;;;;10.63;5.18;;;2.80;83.00;;;;;;5114543;28;20074;-74
2021/11/11 05:47:41;;;;;;;9.30;5.28;;;2.90;82.80;;;;;;5114492;28;20543;-74
2021/11/11 05:50:08;;;;;;;8.48;4.90;;;2.90;82.80;;;;;;5114332;28;20486;-75
2021/11/11 05:52:33;;;;;;;10.48;5.38;;;2.90;82.70;;;;;;5114384;28;20030;-74
2021/11/11 05:54:59;;;;;;;11.75;5.47;;;2.90;82.40;;;;;;5114235;28;20098;-74
2021/11/11 05:57:25;;;;;;;8.30;4.75;;;2.90;82.10;;;;;;5114320;28;20024;-74
2021/11/11 05:59:50;;;;;;;11.30;5.25;;;2.80;81.70;;;;;;5114236;28;20072;-74
2021/11/11 06:02:16;;;;;;;7.88;4.95;;;2.80;81.90;;;;;;5114148;28;20495;-74
2021/11/11 06:04:43;;;;;;;11.25;5.10;;;2.80;82.00;;;;;;5114032;28;20027;-72
2021/11/11 06:07:09;;;;;;;12.68;5.88;;;2.80;81.90;;;;;;5114102;28;20028;-73
2021/11/11 06:09:35;;;;;;;9.02;5.30;;;2.80;82.00;;;;;;5113510;28;20041;-73
2021/11/11 06:12:01;;;;;;;11.80;5.95;;;2.80;82.30;;;;;;5113586;28;20048;-75
2021/11/11 06:14:26;;;;;;;23.25;11.90;;;2.70;82.50;;;;;;5114079;28;20496;-73
2021/11/11 06:16:52;;;;;;;27.25;13.57;;;2.80;82.40;;;;;;5095691;28;20027;-74
2021/11/11 06:19:18;;;;;;;29.13;13.55;;;2.80;82.20;;;;;;5113866;28;20107;-73
2021/11/11 06:21:44;;;;;;;23.80;13.07;;;2.80;82.10;;;;;;5113666;28;20023;-74
2021/11/11 06:24:10;;;;;;;21.27;11.77;;;2.80;82.10;;;;;;5113058;28;20042;-74
2021/11/11 06:26:36;;;;;;;18.17;9.18;;;2.80;82.00;;;;;;5113775;28;20020;-75
2021/11/11 06:29:03;;;;;;;15.57;8.15;;;2.90;82.10;;;;;;5112744;28;20163;-74
2021/11/11 06:31:29;;;;;;;11.32;6.97;;;2.90;81.70;;;;;;5112762;28;20043;-74
2021/11/11 06:33:55;;;;;;;12.65;6.50;;;2.90;81.30;;;;;;5113229;28;20019;-75
2021/11/11 06:36:22;;;;;;;14.93;6.60;;;2.90;81.00;;;;;;5113397;28;20031;-74
2021/11/11 06:38:48;;;;;;;12.70;6.93;;;2.90;80.90;;;;;;5113522;28;20023;-74
2021/11/11 06:41:13;;;;;;;16.50;8.23;;;2.90;80.60;;;;;;5113400;28;20068;-75
2021/11/11 06:43:40;;;;;;;16.25;7.45;;;2.90;80.50;;;;;;5113288;28;20104;-74
2021/11/11 06:46:06;;;;;;;15.00;6.00;;;2.90;80.30;;;;;;5113442;28;20020;-74
2021/11/11 06:48:32;;;;;;;13.82;6.78;;;2.90;80.20;;;;;;5113431;28;20023;-75
2021/11/11 06:50:58;;;;;;;22.17;8.73;;;3.00;80.20;;;;;;5113252;28;20020;-75
2021/11/11 06:53:24;;;;;;;15.10;7.68;;;3.00;80.30;;;;;;5113026;28;20031;-76
2021/11/11 06:55:50;;;;;;;14.13;7.55;;;3.00;80.30;;;;;;5113274;28;20593;-73
2021/11/11 06:58:21;;;;;;;18.13;7.57;;;3.10;80.30;;;;;;5113426;28;20092;-73
2021/11/11 07:00:48;;;;;;;20.50;9.52;;;3.10;80.10;;;;;;5113292;28;20107;-73
2021/11/11 07:03:13;;;;;;;36.67;14.13;;;3.10;79.90;;;;;;5112969;28;20031;-74
2021/11/11 07:05:39;;;;;;;52.92;21.88;;;3.10;79.70;;;;;;5113295;28;20108;-74
2021/11/11 07:08:08;;;;;;;44.60;18.70;;;3.10;79.70;;;;;;5112951;28;20099;-73
2021/11/11 07:10:35;;;;;;;36.53;15.88;;;3.00;79.70;;;;;;5101921;28;20333;-73
2021/11/11 07:13:01;;;;;;;35.42;15.82;;;3.00;79.80;;;;;;5113137;28;20016;-75
2021/11/11 07:15:27;;;;;;;33.70;15.80;;;3.20;80.00;;;;;;5113805;28;20024;-74
2021/11/11 07:17:52;;;;;;;27.50;13.15;;;3.20;80.20;;;;;;5113462;28;20429;-78
2021/11/11 07:20:18;;;;;;;25.20;10.02;;;3.30;80.30;;;;;;5095352;28;20038;-78
2021/11/11 07:22:45;;;;;;;19.85;9.50;;;3.40;80.10;;;;;;5097988;28;20023;-77
2021/11/11 07:25:12;;;;;;;12.57;7.32;;;3.60;80.20;;;;;;5117468;28;20034;-79
2021/11/11 07:27:38;;;;;;;12.40;5.20;;;3.60;80.00;;;;;;5117432;28;20467;-78
2021/11/11 07:30:07;;;;;;;8.60;5.07;;;3.70;80.10;;;;;;5117259;28;20039;-78
2021/11/11 07:32:33;;;;;;;15.00;5.57;;;3.80;80.10;;;;;;5116900;28;20049;-77
2021/11/11 07:34:58;;;;;;;10.30;5.10;;;3.90;80.40;;;;;;5117202;28;20108;-78
2021/11/11 07:37:24;;;;;;;8.68;4.43;;;4.00;80.30;;;;;;5098749;28;20486;-78
2021/11/11 07:39:51;;;;;;;13.23;5.57;;;4.10;80.00;;;;;;5117023;28;20097;-78
2021/11/11 07:42:19;;;;;;;8.63;4.95;;;4.20;79.50;;;;;;5117001;27;20024;-79
2021/11/11 07:44:45;;;;;;;17.83;5.80;;;4.40;79.40;;;;;;5116863;28;20028;-77
2021/11/11 07:47:10;;;;;;;12.25;5.63;;;4.50;78.90;;;;;;5116909;28;20353;-78
2021/11/11 07:49:36;;;;;;;11.43;6.05;;;4.70;78.30;;;;;;5116714;28;20028;-78
2021/11/11 07:52:02;;;;;;;17.95;5.50;;;4.80;77.60;;;;;;5116815;28;20027;-77
2021/11/11 07:54:27;;;;;;;11.40;5.63;;;5.00;76.90;;;;;;5122456;28;20043;-73
2021/11/11 07:56:53;;;;;;;10.13;5.18;;;5.20;76.80;;;;;;5131077;28;20032;-79
2021/11/11 07:59:18;;;;;;;15.90;6.72;;;5.40;75.80;;;;;;5117726;28;20019;-73
2021/11/11 08:01:44;;;;;;;11.25;4.93;;;5.60;75.10;;;;;;5097998;28;20033;-73
2021/11/11 08:04:10;;;;;;;8.35;5.20;;;5.80;74.40;;;;;;5116277;28;20129;-74
2021/11/11 08:06:35;;;;;;;9.38;5.03;;;5.90;73.50;;;;;;5116285;28;20019;-73
2021/11/11 08:09:01;;;;;;;8.98;4.95;;;6.10;73.00;;;;;;5116046;28;20107;-73
2021/11/11 08:11:27;;;;;;;12.88;5.25;;;6.20;72.90;;;;;;5115813;28;20038;-73
2021/11/11 08:13:52;;;;;;;15.88;5.97;;;6.30;71.20;;;;;;5116022;28;20507;-73
2021/11/11 08:16:18;;;;;;;14.18;5.30;;;6.40;70.60;;;;;;5116325;28;20058;-73
2021/11/11 08:18:44;;;;;;;12.43;4.72;;;6.50;70.10;;;;;;5116204;28;20497;-72
2021/11/11 08:21:10;;;;;;;10.80;4.45;;;6.60;69.60;;;;;;5116005;28;20024;-74
2021/11/11 08:23:36;;;;;;;12.10;6.22;;;6.70;69.50;;;;;;5116129;28;20032;-74
2021/11/11 08:26:04;;;;;;;14.35;6.43;;;6.80;69.20;;;;;;5097825;28;20073;-71
2021/11/11 08:28:31;;;;;;;11.45;6.55;;;6.90;68.80;;;;;;5116000;28;20030;-73
2021/11/11 08:30:57;;;;;;;10.55;4.75;;;7.00;68.20;;;;;;5115722;28;20031;-74
2021/11/11 08:33:22;;;;;;;9.68;4.55;;;7.10;67.50;;;;;;5114993;28;20096;-74
2021/11/11 08:35:49;;;;;;;14.60;7.28;;;7.40;67.00;;;;;;5115830;28;20026;-74
2021/11/11 08:38:16;;;;;;;10.30;4.57;;;7.50;68.20;;;;;;5097278;28;20026;-74
2021/11/11 08:40:41;;;;;;;11.40;6.07;;;7.60;71.80;;;;;;5115722;28;20020;-74
2021/11/11 08:43:07;;;;;;;16.13;7.97;;;7.80;71.80;;;;;;5115449;28;20034;-74
2021/11/11 08:45:34;;;;;;;14.70;8.55;;;7.90;71.90;;;;;;5115762;28;20020;-76
2021/11/11 08:48:01;;;;;;;17.90;9.45;;;8.10;72.00;;;;;;5136367;28;20083;-74
2021/11/11 08:50:30;;;;;;;20.13;9.93;;;8.20;71.70;;;;;;5120706;28;20034;-73
2021/11/11 08:53:00;;;;;;;16.88;10.10;;;8.50;71.40;;;;;;5138580;28;20020;-74
2021/11/11 08:55:30;;;;;;;17.17;9.23;;;8.80;70.70;;;;;;5138333;28;20023;-73
2021/11/11 08:57:58;;;;;;;15.90;7.50;;;9.10;69.20;;;;;;5138974;27;20053;-75
2021/11/11 09:00:25;;;;;;;16.75;7.93;;;9.30;67.70;;;;;;5138714;27;20026;-75
2021/11/11 09:02:54;;;;;;;9.95;7.72;;;9.50;66.80;;;;;;5135797;28;20028;-79
2021/11/11 09:05:21;;;;;;;17.25;10.13;;;9.70;66.60;;;;;;5118495;28;20019;-80
2021/11/11 09:07:48;;;;;;;14.27;9.50;;;10.00;66.30;;;;;;5117986;28;20499;-79
2021/11/11 09:10:18;;;;;;;19.40;9.95;;;10.20;65.40;;;;;;5118719;28;20027;-79
2021/11/11 09:12:44;;;;;;;16.67;8.98;;;10.30;65.00;;;;;;5118286;28;20422;-74
2021/11/11 09:15:13;;;;;;;15.43;7.75;;;10.20;64.50;;;;;;5117271;28;20106;-79
2021/11/11 09:17:39;;;;;;;15.88;7.07;;;10.20;64.30;;;;;;5117692;28;20022;-80
2021/11/11 09:20:08;;;;;;;12.13;6.63;;;10.30;64.00;;;;;;5097025;28;20039;-80
2021/11/11 09:22:34;;;;;;;11.65;5.60;;;10.50;62.70;;;;;;5097075;28;20035;-82
2021/11/11 09:25:05;;;;;;;9.32;4.85;;;10.90;71.30;;;;;;5115615;28;20035;-82
2021/11/11 09:27:31;;;;;;;10.88;4.88;;;11.40;71.60;;;;;;5115621;28;20043;-81
2021/11/11 09:29:58;;;;;;;13.82;6.95;;;12.00;68.80;;;;;;5114914;28;20033;-82
2021/11/11 09:32:24;;;;;;;10.38;5.53;;;12.40;62.70;;;;;;5114972;28;20110;-83
2021/11/11 09:34:49;;;;;;;10.55;6.05;;;12.50;61.40;;;;;;5096658;28;20111;-82
2021/11/11 09:37:15;;;;;;;11.15;7.03;;;12.80;60.20;;;;;;5096568;28;20028;-81
2021/11/11 09:39:41;;;;;;;11.82;6.97;;;12.90;58.40;;;;;;5115075;28;20015;-81
2021/11/11 09:42:08;;;;;;;14.20;6.53;;;12.90;59.20;;;;;;5114611;28;20020;-80
2021/11/11 09:44:34;;;;;;;12.23;6.63;;;12.70;58.00;;;;;;5114906;28;20028;-82
2021/11/11 09:47:00;;;;;;;11.70;6.72;;;13.00;57.10;;;;;;5114612;28;20071;-82
2021/11/11 09:49:27;;;;;;;10.57;5.95;;;13.10;55.70;;;;;;5114772;28;20038;-82
2021/11/11 09:51:53;;;;;;;11.02;5.95;;;13.30;54.50;;;;;;5114646;28;20020;-81
2021/11/11 09:58:34;;;;;;;10.57;5.47;;;13.50;53.60;;;;;;5114533;28;20024;-81
2021/11/11 09:59:54;;;;;;;10.88;6.57;;;14.00;52.10;;;;;;5115706;28;20039;-81
2021/11/11 10:02:20;;;;;;;13.32;6.50;;;14.30;50.90;;;;;;5117298;28;20152;-81
2021/11/11 10:04:46;;;;;;;10.15;5.65;;;14.40;50.40;;;;;;5116339;28;20061;-81
2021/11/11 10:07:12;;;;;;;10.70;6.25;;;14.70;49.50;;;;;;5115397;28;20027;-80
2021/11/11 10:09:45;;;;;;;11.27;6.32;;;14.80;48.90;;;;;;5105236;28;20019;-81
2021/11/11 10:12:21;;;;;;;10.65;6.35;;;14.90;47.60;;;;;;5117068;28;20096;-82
2021/11/11 10:14:48;;;;;;;11.70;6.95;;;15.20;47.40;;;;;;5113979;28;20076;-81
2021/11/11 10:17:19;;;;;;;12.23;6.43;;;15.30;46.10;;;;;;5113724;28;20349;-77
2021/11/11 10:19:53;;;;;;;13.18;7.25;;;15.50;45.80;;;;;;5114005;28;20020;-78
2021/11/11 10:22:24;;;;;;;15.43;7.03;;;15.60;43.80;;;;;;5113766;28;20016;-76
2021/11/11 10:25:00;;;;;;;13.38;6.40;;;15.60;43.90;;;;;;5113562;28;20036;-77
2021/11/11 10:27:39;;;;;;;10.75;5.95;;;14.70;44.40;;;;;;5113627;28;20024;-78
2021/11/11 10:30:14;;;;;;;10.35;5.70;;;14.60;45.90;;;;;;5113920;28;20032;-76
2021/11/11 10:32:49;;;;;;;12.57;6.10;;;15.00;46.30;;;;;;5113500;28;20067;-76
2021/11/11 10:35:22;;;;;;;10.80;6.00;;;15.20;44.50;;;;;;5113543;28;20460;-76
2021/11/11 10:37:58;;;;;;;9.85;5.45;;;15.10;43.30;;;;;;5113534;28;20480;-77
2021/11/11 10:40:31;;;;;;;9.07;5.40;;;15.30;44.40;;;;;;5113233;28;20075;-76
2021/11/11 10:42:57;;;;;;;8.00;5.32;;;15.50;42.80;;;;;;5113180;28;20107;-76
2021/11/11 10:45:32;;;;;;;7.82;4.63;;;15.60;42.50;;;;;;5113213;28;20459;-76
2021/11/11 10:48:02;;;;;;;10.00;6.05;;;15.40;42.50;;;;;;5113537;28;20024;-76
2021/11/11 10:50:34;;;;;;;15.90;7.30;;;15.50;42.90;;;;;;5113324;28;20012;-76
2021/11/11 10:53:03;;;;;;;20.40;9.68;;;15.40;43.60;;;;;;5113300;28;20100;-76
2021/11/11 10:55:33;;;;;;;21.10;13.02;;;15.70;43.30;;;;;;5113321;28;20157;-76
2021/11/11 10:58:05;;;;;;;27.45;13.30;;;15.80;42.90;;;;;;5094380;28;20031;-76
2021/11/11 11:00:42;;;;;;;21.08;12.68;;;16.00;42.70;;;;;;5094972;28;20391;-76
2021/11/11 11:03:17;;;;;;;22.38;11.75;;;16.30;42.00;;;;;;5112913;28;20107;-76
2021/11/11 11:05:45;;;;;;;14.60;8.52;;;16.50;42.30;;;;;;5112942;28;20027;-76
2021/11/11 11:08:14;;;;;;;16.48;8.43;;;16.90;41.00;;;;;;5113072;28;20379;-75
2021/11/11 11:10:44;;;;;;;11.30;7.45;;;17.00;40.70;;;;;;5112774;28;20016;-74
2021/11/11 11:13:20;;;;;;;10.05;6.65;;;16.60;41.20;;;;;;5112664;28;20019;-76
2021/11/11 11:15:58;;;;;;;14.90;6.75;;;16.30;42.60;;;;;;5113012;28;20063;-76
2021/11/11 11:18:33;;;;;;;11.38;7.38;;;16.30;43.40;;;;;;5113019;28;20030;-76
2021/11/11 11:21:08;;;;;;;11.73;7.93;;;16.80;42.40;;;;;;5112783;28;20050;-76
2021/11/11 11:23:41;;;;;;;10.52;6.43;;;17.00;40.90;;;;;;5112905;28;20036;-76
2021/11/11 11:26:13;;;;;;;11.85;6.82;;;17.10;40.90;;;;;;5112852;28;20440;-77
2021/11/11 11:28:48;;;;;;;12.65;7.75;;;17.50;39.80;;;;;;5112804;28;20039;-77
2021/11/11 11:31:26;;;;;;;9.98;7.25;;;17.80;38.90;;;;;;5112646;28;20053;-76
2021/11/11 11:33:53;;;;;;;16.38;7.68;;;17.90;39.50;;;;;;5112909;28;20094;-76
2021/11/11 11:36:33;;;;;;;12.52;7.97;;;18.20;38.80;;;;;;5112852;28;20112;-76
2021/11/11 11:38:58;;;;;;;12.57;8.63;;;18.60;38.60;;;;;;5112808;28;20031;-76
2021/11/11 11:41:36;;;;;;;15.43;9.57;;;18.90;38.00;;;;;;5094346;28;20026;-77
2021/11/11 11:44:18;;;;;;;13.90;9.60;;;17.90;39.30;;;;;;5112756;28;20067;-76
2021/11/11 11:46:53;;;;;;;17.92;9.15;;;17.70;39.90;;;;;;5120714;28;20150;-77
2021/11/11 11:49:19;;;;;;;10.13;7.15;;;17.40;40.90;;;;;;5115184;28;20349;-76
2021/11/11 11:51:45;;;;;;;11.63;7.13;;;17.30;39.50;;;;;;5111688;28;20068;-77
2021/11/11 11:54:21;;;;;;;9.52;6.65;;;17.30;38.50;;;;;;5111836;28;20106;-74
2021/11/11 11:56:52;;;;;;;15.50;8.88;;;17.90;37.40;;;;;;5111886;28;20436;-74
2021/11/11 11:59:20;;;;;;;16.15;9.20;;;18.50;37.80;;;;;;5112175;28;20030;-75
2021/11/11 12:01:58;;;;;;;13.57;9.00;;;19.30;37.70;;;;;;5111942;28;20102;-77
2021/11/11 12:04:34;;;;;;;11.02;8.55;;;19.70;36.30;;;;;;5112172;28;20095;-75
2021/11/11 12:07:13;;;;;;;11.27;8.45;;;20.20;35.50;;;;;;5112215;28;20015;-74
2021/11/11 12:09:46;;;;;;;12.82;8.32;;;20.70;34.50;;;;;;5114536;28;20019;-75
2021/11/11 12:15:30;;;;;;;13.93;9.40;;;21.80;32.30;;;;;;5115837;28;20031;-75
2021/11/11 12:29:28;;;;;;;12.27;7.78;;;24.60;25.60;;;;;;5115235;28;20038;-76
2021/11/11 12:40:05;;;;;;;11.90;7.40;;;27.50;20.10;;;;;;5115872;28;20119;-78
2021/11/11 12:42:38;;;;;;;13.25;7.70;;;28.30;19.20;;;;;;5115207;28;20024;-76
2021/11/11 12:45:24;;;;;;;11.45;8.30;;;29.00;18.60;;;;;;5115269;28;20031;-77
2021/11/11 12:48:09;;;;;;;;;;;29.50;17.60;;;;;;5115610;28;20020;-77
2021/11/11 12:50:44;;;;;;;12.05;7.28;;;30.00;16.80;;;;;;5115489;28;19903;-77
2021/11/11 12:53:12;;;;;;;12.15;7.88;;;30.40;16.30;;;;;;5115472;28;20102;-77
2021/11/11 12:55:46;;;;;;;12.63;8.20;;;30.20;15.70;;;;;;5097433;28;20365;-78
2021/11/11 12:58:17;;;;;;;20.25;9.13;;;30.30;15.60;;;;;;5115424;28;20020;-77
2021/11/11 13:00:48;;;;;;;13.75;8.60;;;30.70;15.50;;;;;;5115146;28;20016;-80
2021/11/11 13:03:16;;;;;;;11.20;7.18;;;30.60;14.90;;;;;;5115045;28;20031;-78
2021/11/11 13:05:48;;;;;;;11.68;8.18;;;31.00;15.10;;;;;;5096721;28;20046;-77
2021/11/11 13:08:40;;;;;;;24.02;15.10;;;30.50;14.40;;;;;;5115311;28;20059;-77
2021/11/11 13:11:06;;;;;;;13.25;9.05;;;30.80;14.60;;;;;;5114851;28;20024;-77
2021/11/11 13:13:33;;;;;;;8.70;7.47;;;30.50;14.70;;;;;;5116131;28;20034;-77
2021/11/11 13:16:19;;;;;;;8.85;7.35;;;31.10;14.90;;;;;;5115409;28;20020;-78
2021/11/11 13:18:51;;;;;;;10.77;7.25;;;31.80;14.30;;;;;;5114894;28;20023;-78
2021/11/11 13:21:17;;;;;;;10.85;7.88;;;32.30;13.90;;;;;;5114841;28;20023;-78
2021/11/11 13:24:01;;;;;;;10.23;7.47;;;31.60;13.30;;;;;;5114777;28;20023;-78
2021/11/11 14:00:21;;;;;;;10.95;8.80;;;31.80;13.90;;;;;;5113959;28;20122;-78
2021/11/11 16:01:31;;;;;;;26.77;15.88;;;11.20;62.30;;;;;;5116662;28;20038;-82
2021/11/11 16:22:57;;;;;;;16.92;11.18;;;10.80;64.10;;;;;;5116291;28;20027;-84
2021/11/11 16:25:37;;;;;;;18.85;10.82;;;10.80;64.50;;;;;;5116705;28;20459;-83
2021/11/11 16:28:02;;;;;;;23.15;13.45;;;10.70;64.90;;;;;;5116556;28;20046;-83